sensor_id;sensor_type;location;lat;lon;timestamp;temperature;humidity
7117;DHT22;3600;48.568;7.870;2023-06-04T00:02:23;17.40;90.10
7117;DHT22;3600;48.568;7.870;2023-06-04T00:04:50;17.40;90.10
7117;DHT22;3600;48.568;7.870;2023-06-04T00:07:17;17.30;90.00
7117;DHT22;3600;48.568;7.870;2023-06-04T00:09:45;17.20;90.00
7117;DHT22;3600;48.568;7.870;2023-06-04T00:12:13;17.20;90.00
7117;DHT22;3600;48.568;7.870;2023-06-04T00:14:40;16.90;90.10
7117;DHT22;3600;48.568;7.870;2023-06-04T00:17:08;16.90;90.50
7117;DHT22;3600;48.568;7.870;2023-06-04T00:19:37;17.00;90.20
7117;DHT22;3600;48.568;7.870;2023-06-04T00:22:04;16.90;90.40
7117;DHT22;3600;48.568;7.870;2023-06-04T00:24:32;16.90;89.90
7117;DHT22;3600;48.568;7.870;2023-06-04T00:26:59;16.80;89.20
7117;DHT22;3600;48.568;7.870;2023-06-04T00:29:26;16.60;89.60
7117;DHT22;3600;48.568;7.870;2023-06-04T00:31:53;16.70;89.50
7117;DHT22;3600;48.568;7.870;2023-06-04T00:34:20;16.60;89.20
7117;DHT22;3600;48.568;7.870;2023-06-04T00:36:46;16.60;89.50
7117;DHT22;3600;48.568;7.870;2023-06-04T00:39:13;16.70;89.10
7117;DHT22;3600;48.568;7.870;2023-06-04T00:41:40;16.50;89.20
7117;DHT22;3600;48.568;7.870;2023-06-04T00:44:07;16.60;89.80
7117;DHT22;3600;48.568;7.870;2023-06-04T00:46:35;16.80;89.60
7117;DHT22;3600;48.568;7.870;2023-06-04T00:49:04;16.70;89.50
7117;DHT22;3600;48.568;7.870;2023-06-04T00:51:31;16.60;90.10
7117;DHT22;3600;48.568;7.870;2023-06-04T00:53:59;16.50;89.70
7117;DHT22;3600;48.568;7.870;2023-06-04T00:56:28;16.40;90.00
7117;DHT22;3600;48.568;7.870;2023-06-04T00:58:55;16.40;89.90
7117;DHT22;3600;48.568;7.870;2023-06-04T01:03:55;16.40;89.30
7117;DHT22;3600;48.568;7.870;2023-06-04T01:06:38;16.30;89.90
7117;DHT22;3600;48.568;7.870;2023-06-04T01:09:06;16.20;90.10
7117;DHT22;3600;48.568;7.870;2023-06-04T01:11:35;16.10;90.30
7117;DHT22;3600;48.568;7.870;2023-06-04T01:14:06;16.20;90.30
7117;DHT22;3600;48.568;7.870;2023-06-04T01:19:30;16.20;90.00
7117;DHT22;3600;48.568;7.870;2023-06-04T01:22:11;16.00;90.10
7117;DHT22;3600;48.568;7.870;2023-06-04T01:24:45;16.00;90.30
7117;DHT22;3600;48.568;7.870;2023-06-04T01:27:17;15.90;90.30
7117;DHT22;3600;48.568;7.870;2023-06-04T01:29:46;15.80;90.70
7117;DHT22;3600;48.568;7.870;2023-06-04T01:32:17;15.70;90.80
7117;DHT22;3600;48.568;7.870;2023-06-04T01:34:45;15.80;90.80
7117;DHT22;3600;48.568;7.870;2023-06-04T01:37:12;15.80;90.80
7117;DHT22;3600;48.568;7.870;2023-06-04T01:39:40;15.60;91.00
7117;DHT22;3600;48.568;7.870;2023-06-04T01:42:08;15.60;90.90
7117;DHT22;3600;48.568;7.870;2023-06-04T01:44:35;15.50;90.70
7117;DHT22;3600;48.568;7.870;2023-06-04T01:47:02;15.50;91.00
7117;DHT22;3600;48.568;7.870;2023-06-04T01:49:29;15.60;90.80
7117;DHT22;3600;48.568;7.870;2023-06-04T01:51:56;15.50;90.80
7117;DHT22;3600;48.568;7.870;2023-06-04T01:54:23;15.30;91.00
7117;DHT22;3600;48.568;7.870;2023-06-04T01:56:49;15.50;91.10
7117;DHT22;3600;48.568;7.870;2023-06-04T01:59:17;15.90;90.80
7117;DHT22;3600;48.568;7.870;2023-06-04T02:01:44;15.80;90.60
7117;DHT22;3600;48.568;7.870;2023-06-04T02:04:11;15.70;90.80
7117;DHT22;3600;48.568;7.870;2023-06-04T02:06:38;15.60;90.70
7117;DHT22;3600;48.568;7.870;2023-06-04T02:09:04;15.50;90.90
7117;DHT22;3600;48.568;7.870;2023-06-04T02:11:32;15.40;91.10
7117;DHT22;3600;48.568;7.870;2023-06-04T02:13:59;15.50;91.00
7117;DHT22;3600;48.568;7.870;2023-06-04T02:16:26;15.50;91.10
7117;DHT22;3600;48.568;7.870;2023-06-04T02:18:53;15.30;91.00
7117;DHT22;3600;48.568;7.870;2023-06-04T02:21:23;15.50;90.90
7117;DHT22;3600;48.568;7.870;2023-06-04T02:23:50;15.50;91.00
7117;DHT22;3600;48.568;7.870;2023-06-04T02:26:17;15.40;91.10
7117;DHT22;3600;48.568;7.870;2023-06-04T02:28:44;15.30;91.10
7117;DHT22;3600;48.568;7.870;2023-06-04T02:31:13;15.50;91.20
7117;DHT22;3600;48.568;7.870;2023-06-04T02:33:40;15.60;91.00
7117;DHT22;3600;48.568;7.870;2023-06-04T02:36:07;15.50;90.90
7117;DHT22;3600;48.568;7.870;2023-06-04T02:38:35;15.60;91.10
7117;DHT22;3600;48.568;7.870;2023-06-04T02:41:02;15.30;91.00
7117;DHT22;3600;48.568;7.870;2023-06-04T02:43:28;15.50;91.00
7117;DHT22;3600;48.568;7.870;2023-06-04T02:45:55;15.40;90.80
7117;DHT22;3600;48.568;7.870;2023-06-04T02:48:22;15.30;91.10
7117;DHT22;3600;48.568;7.870;2023-06-04T02:50:49;15.30;90.90
7117;DHT22;3600;48.568;7.870;2023-06-04T02:53:16;15.40;91.10
7117;DHT22;3600;48.568;7.870;2023-06-04T02:55:43;15.50;90.90
7117;DHT22;3600;48.568;7.870;2023-06-04T02:58:10;15.40;90.90
7117;DHT22;3600;48.568;7.870;2023-06-04T03:00:37;15.30;91.00
7117;DHT22;3600;48.568;7.870;2023-06-04T03:03:05;15.30;91.10
7117;DHT22;3600;48.568;7.870;2023-06-04T03:05:32;15.20;91.40
7117;DHT22;3600;48.568;7.870;2023-06-04T03:08:01;15.20;91.10
7117;DHT22;3600;48.568;7.870;2023-06-04T03:10:29;15.10;91.20
7117;DHT22;3600;48.568;7.870;2023-06-04T03:12:57;15.10;91.10
7117;DHT22;3600;48.568;7.870;2023-06-04T03:15:24;15.10;91.50
7117;DHT22;3600;48.568;7.870;2023-06-04T03:17:51;15.10;91.40
7117;DHT22;3600;48.568;7.870;2023-06-04T03:20:18;15.10;91.30
7117;DHT22;3600;48.568;7.870;2023-06-04T03:22:45;15.20;91.30
7117;DHT22;3600;48.568;7.870;2023-06-04T03:25:12;15.20;91.10
7117;DHT22;3600;48.568;7.870;2023-06-04T03:27:39;15.10;91.30
7117;DHT22;3600;48.568;7.870;2023-06-04T03:30:06;14.90;91.30
7117;DHT22;3600;48.568;7.870;2023-06-04T03:32:34;14.90;91.30
7117;DHT22;3600;48.568;7.870;2023-06-04T03:35:01;14.90;91.60
7117;DHT22;3600;48.568;7.870;2023-06-04T03:37:29;14.80;91.50
7117;DHT22;3600;48.568;7.870;2023-06-04T03:39:57;14.70;91.70
7117;DHT22;3600;48.568;7.870;2023-06-04T03:42:40;14.70;91.60
7117;DHT22;3600;48.568;7.870;2023-06-04T03:45:12;14.50;91.80
7117;DHT22;3600;48.568;7.870;2023-06-04T03:47:40;14.40;91.90
7117;DHT22;3600;48.568;7.870;2023-06-04T03:50:09;14.40;91.90
7117;DHT22;3600;48.568;7.870;2023-06-04T03:52:36;14.50;91.90
7117;DHT22;3600;48.568;7.870;2023-06-04T03:55:03;14.60;91.90
7117;DHT22;3600;48.568;7.870;2023-06-04T03:57:30;14.40;91.60
7117;DHT22;3600;48.568;7.870;2023-06-04T03:59:57;14.50;91.80
7117;DHT22;3600;48.568;7.870;2023-06-04T04:02:25;14.60;91.80
7117;DHT22;3600;48.568;7.870;2023-06-04T04:04:54;14.60;91.90
7117;DHT22;3600;48.568;7.870;2023-06-04T04:07:25;14.70;91.40
7117;DHT22;3600;48.568;7.870;2023-06-04T04:09:52;14.70;91.50
7117;DHT22;3600;48.568;7.870;2023-06-04T04:12:21;14.40;91.50
7117;DHT22;3600;48.568;7.870;2023-06-04T04:14:50;14.50;91.50
7117;DHT22;3600;48.568;7.870;2023-06-04T04:17:29;14.60;91.20
7117;DHT22;3600;48.568;7.870;2023-06-04T04:19:56;14.70;91.30
7117;DHT22;3600;48.568;7.870;2023-06-04T04:22:23;14.90;91.90
7117;DHT22;3600;48.568;7.870;2023-06-04T04:24:50;15.00;91.90
7117;DHT22;3600;48.568;7.870;2023-06-04T04:27:17;14.80;90.80
7117;DHT22;3600;48.568;7.870;2023-06-04T04:29:44;14.50;91.10
7117;DHT22;3600;48.568;7.870;2023-06-04T04:32:14;14.50;91.40
7117;DHT22;3600;48.568;7.870;2023-06-04T04:34:53;14.40;91.40
7117;DHT22;3600;48.568;7.870;2023-06-04T04:37:21;14.50;91.40
7117;DHT22;3600;48.568;7.870;2023-06-04T04:39:49;14.40;91.70
7117;DHT22;3600;48.568;7.870;2023-06-04T04:42:19;14.50;91.40
7117;DHT22;3600;48.568;7.870;2023-06-04T04:44:46;14.70;91.40
7117;DHT22;3600;48.568;7.870;2023-06-04T04:47:15;14.80;90.90
7117;DHT22;3600;48.568;7.870;2023-06-04T04:49:42;14.80;91.00
7117;DHT22;3600;48.568;7.870;2023-06-04T04:52:09;15.10;91.10
7117;DHT22;3600;48.568;7.870;2023-06-04T04:54:36;15.00;91.40
7117;DHT22;3600;48.568;7.870;2023-06-04T04:57:03;14.70;91.10
7117;DHT22;3600;48.568;7.870;2023-06-04T04:59:39;14.90;91.30
7117;DHT22;3600;48.568;7.870;2023-06-04T05:02:06;14.90;91.30
7117;DHT22;3600;48.568;7.870;2023-06-04T05:04:33;15.40;91.00
7117;DHT22;3600;48.568;7.870;2023-06-04T05:07:00;15.50;91.10
7117;DHT22;3600;48.568;7.870;2023-06-04T05:09:27;15.40;91.10
7117;DHT22;3600;48.568;7.870;2023-06-04T05:11:57;15.10;91.30
7117;DHT22;3600;48.568;7.870;2023-06-04T05:14:25;15.30;91.20
7117;DHT22;3600;48.568;7.870;2023-06-04T05:16:52;15.50;91.00
7117;DHT22;3600;48.568;7.870;2023-06-04T05:19:19;15.40;90.90
7117;DHT22;3600;48.568;7.870;2023-06-04T05:21:46;15.20;91.70
7117;DHT22;3600;48.568;7.870;2023-06-04T05:24:15;15.30;91.40
7117;DHT22;3600;48.568;7.870;2023-06-04T05:26:42;15.20;91.60
7117;DHT22;3600;48.568;7.870;2023-06-04T05:29:10;15.40;91.50
7117;DHT22;3600;48.568;7.870;2023-06-04T05:31:37;15.30;90.80
7117;DHT22;3600;48.568;7.870;2023-06-04T05:34:06;15.70;90.60
7117;DHT22;3600;48.568;7.870;2023-06-04T05:36:34;15.70;90.30
7117;DHT22;3600;48.568;7.870;2023-06-04T05:39:04;15.50;90.20
7117;DHT22;3600;48.568;7.870;2023-06-04T05:41:31;15.60;90.50
7117;DHT22;3600;48.568;7.870;2023-06-04T05:43:57;15.70;90.70
7117;DHT22;3600;48.568;7.870;2023-06-04T05:46:24;15.50;90.30
7117;DHT22;3600;48.568;7.870;2023-06-04T05:48:51;15.80;90.00
7117;DHT22;3600;48.568;7.870;2023-06-04T05:51:18;15.90;89.70
7117;DHT22;3600;48.568;7.870;2023-06-04T05:53:46;15.90;89.10
7117;DHT22;3600;48.568;7.870;2023-06-04T05:56:13;16.00;89.50
7117;DHT22;3600;48.568;7.870;2023-06-04T05:58:41;16.00;89.70
7117;DHT22;3600;48.568;7.870;2023-06-04T06:01:08;16.20;89.70
7117;DHT22;3600;48.568;7.870;2023-06-04T06:03:35;16.20;88.60
7117;DHT22;3600;48.568;7.870;2023-06-04T06:06:03;16.20;89.40
7117;DHT22;3600;48.568;7.870;2023-06-04T06:08:32;16.10;90.00
7117;DHT22;3600;48.568;7.870;2023-06-04T06:10:59;16.10;89.30
7117;DHT22;3600;48.568;7.870;2023-06-04T06:13:26;16.20;90.00
7117;DHT22;3600;48.568;7.870;2023-06-04T06:15:56;16.30;88.80
7117;DHT22;3600;48.568;7.870;2023-06-04T06:18:24;16.30;88.60
7117;DHT22;3600;48.568;7.870;2023-06-04T06:20:50;16.40;89.70
7117;DHT22;3600;48.568;7.870;2023-06-04T06:23:17;16.60;89.40
7117;DHT22;3600;48.568;7.870;2023-06-04T06:25:48;16.70;88.90
7117;DHT22;3600;48.568;7.870;2023-06-04T06:28:16;16.60;88.00
7117;DHT22;3600;48.568;7.870;2023-06-04T06:30:43;16.50;88.30
7117;DHT22;3600;48.568;7.870;2023-06-04T06:33:11;16.60;88.90
7117;DHT22;3600;48.568;7.870;2023-06-04T06:35:38;16.70;88.70
7117;DHT22;3600;48.568;7.870;2023-06-04T06:38:05;16.80;89.70
7117;DHT22;3600;48.568;7.870;2023-06-04T06:40:32;16.60;88.30
7117;DHT22;3600;48.568;7.870;2023-06-04T06:42:59;16.70;89.90
7117;DHT22;3600;48.568;7.870;2023-06-04T06:45:25;16.60;87.50
7117;DHT22;3600;48.568;7.870;2023-06-04T06:47:52;16.80;87.50
7117;DHT22;3600;48.568;7.870;2023-06-04T06:50:19;17.00;86.90
7117;DHT22;3600;48.568;7.870;2023-06-04T06:52:46;17.00;88.40
7117;DHT22;3600;48.568;7.870;2023-06-04T06:55:13;17.00;88.50
7117;DHT22;3600;48.568;7.870;2023-06-04T06:57:40;17.30;88.00
7117;DHT22;3600;48.568;7.870;2023-06-04T07:00:08;17.20;87.30
7117;DHT22;3600;48.568;7.870;2023-06-04T07:02:35;17.20;87.70
7117;DHT22;3600;48.568;7.870;2023-06-04T07:05:02;17.50;87.80
7117;DHT22;3600;48.568;7.870;2023-06-04T07:07:29;17.50;88.40
7117;DHT22;3600;48.568;7.870;2023-06-04T07:09:57;17.40;87.60
7117;DHT22;3600;48.568;7.870;2023-06-04T07:12:24;17.60;89.00
7117;DHT22;3600;48.568;7.870;2023-06-04T07:14:51;17.60;87.30
7117;DHT22;3600;48.568;7.870;2023-06-04T07:17:18;17.80;85.90
7117;DHT22;3600;48.568;7.870;2023-06-04T07:19:45;17.70;86.70
7117;DHT22;3600;48.568;7.870;2023-06-04T07:22:12;17.60;87.50
7117;DHT22;3600;48.568;7.870;2023-06-04T07:24:38;17.80;86.20
7117;DHT22;3600;48.568;7.870;2023-06-04T07:27:15;18.10;86.30
7117;DHT22;3600;48.568;7.870;2023-06-04T07:29:45;17.90;87.30
7117;DHT22;3600;48.568;7.870;2023-06-04T07:32:12;18.00;87.50
7117;DHT22;3600;48.568;7.870;2023-06-04T07:34:39;18.20;87.50
7117;DHT22;3600;48.568;7.870;2023-06-04T07:37:06;18.20;86.00
7117;DHT22;3600;48.568;7.870;2023-06-04T07:39:34;18.30;86.50
7117;DHT22;3600;48.568;7.870;2023-06-04T07:42:01;18.40;87.10
7117;DHT22;3600;48.568;7.870;2023-06-04T07:44:28;18.00;86.20
7117;DHT22;3600;48.568;7.870;2023-06-04T07:46:55;18.30;87.30
7117;DHT22;3600;48.568;7.870;2023-06-04T07:49:22;18.40;86.90
7117;DHT22;3600;48.568;7.870;2023-06-04T07:51:49;18.40;86.40
7117;DHT22;3600;48.568;7.870;2023-06-04T07:54:16;18.50;86.10
7117;DHT22;3600;48.568;7.870;2023-06-04T07:56:46;17.90;88.00
7117;DHT22;3600;48.568;7.870;2023-06-04T07:59:17;18.00;87.60
7117;DHT22;3600;48.568;7.870;2023-06-04T08:01:44;17.80;89.00
7117;DHT22;3600;48.568;7.870;2023-06-04T08:04:12;18.10;89.30
7117;DHT22;3600;48.568;7.870;2023-06-04T08:06:39;17.90;87.90
7117;DHT22;3600;48.568;7.870;2023-06-04T08:09:06;18.10;88.90
7117;DHT22;3600;48.568;7.870;2023-06-04T08:11:36;18.40;87.50
7117;DHT22;3600;48.568;7.870;2023-06-04T08:14:03;18.50;86.70
7117;DHT22;3600;48.568;7.870;2023-06-04T08:16:31;18.70;87.90
7117;DHT22;3600;48.568;7.870;2023-06-04T08:18:58;18.90;85.20
7117;DHT22;3600;48.568;7.870;2023-06-04T08:21:28;19.00;85.70
7117;DHT22;3600;48.568;7.870;2023-06-04T08:23:55;19.10;85.40
7117;DHT22;3600;48.568;7.870;2023-06-04T08:26:22;18.60;84.70
7117;DHT22;3600;48.568;7.870;2023-06-04T08:28:51;18.70;86.00
7117;DHT22;3600;48.568;7.870;2023-06-04T08:31:18;18.70;87.10
7117;DHT22;3600;48.568;7.870;2023-06-04T08:33:46;18.50;85.60
7117;DHT22;3600;48.568;7.870;2023-06-04T08:36:14;18.60;87.40
7117;DHT22;3600;48.568;7.870;2023-06-04T08:38:42;18.60;86.30
7117;DHT22;3600;48.568;7.870;2023-06-04T08:41:15;18.80;86.30
7117;DHT22;3600;48.568;7.870;2023-06-04T08:43:43;19.00;86.80
7117;DHT22;3600;48.568;7.870;2023-06-04T08:46:13;18.90;86.50
7117;DHT22;3600;48.568;7.870;2023-06-04T08:48:41;18.70;86.00
7117;DHT22;3600;48.568;7.870;2023-06-04T08:51:10;18.90;87.00
7117;DHT22;3600;48.568;7.870;2023-06-04T08:53:38;18.90;87.30
7117;DHT22;3600;48.568;7.870;2023-06-04T08:56:04;18.60;86.50
7117;DHT22;3600;48.568;7.870;2023-06-04T08:58:32;18.50;88.00
7117;DHT22;3600;48.568;7.870;2023-06-04T09:01:06;18.80;88.90
7117;DHT22;3600;48.568;7.870;2023-06-04T09:03:36;19.00;87.30
7117;DHT22;3600;48.568;7.870;2023-06-04T09:06:04;19.20;87.60
7117;DHT22;3600;48.568;7.870;2023-06-04T09:08:35;19.40;87.10
7117;DHT22;3600;48.568;7.870;2023-06-04T09:11:05;19.30;85.50
7117;DHT22;3600;48.568;7.870;2023-06-04T09:13:35;19.40;86.50
7117;DHT22;3600;48.568;7.870;2023-06-04T09:16:03;19.40;87.80
7117;DHT22;3600;48.568;7.870;2023-06-04T09:18:31;19.60;87.10
7117;DHT22;3600;48.568;7.870;2023-06-04T09:21:08;19.60;90.10
7117;DHT22;3600;48.568;7.870;2023-06-04T09:23:46;19.70;86.20
7117;DHT22;3600;48.568;7.870;2023-06-04T09:26:14;19.90;86.90
7117;DHT22;3600;48.568;7.870;2023-06-04T09:28:41;19.90;86.00
7117;DHT22;3600;48.568;7.870;2023-06-04T09:31:10;19.90;86.40
7117;DHT22;3600;48.568;7.870;2023-06-04T09:33:45;19.90;86.90
7117;DHT22;3600;48.568;7.870;2023-06-04T09:36:12;20.20;87.60
7117;DHT22;3600;48.568;7.870;2023-06-04T09:38:39;20.50;87.00
7117;DHT22;3600;48.568;7.870;2023-06-04T09:41:17;20.30;84.60
7117;DHT22;3600;48.568;7.870;2023-06-04T09:44:02;20.10;87.40
7117;DHT22;3600;48.568;7.870;2023-06-04T09:46:30;20.20;86.90
7117;DHT22;3600;48.568;7.870;2023-06-04T09:49:09;20.10;84.00
7117;DHT22;3600;48.568;7.870;2023-06-04T09:51:35;20.40;86.20
7117;DHT22;3600;48.568;7.870;2023-06-04T09:54:15;20.80;85.90
7117;DHT22;3600;48.568;7.870;2023-06-04T09:56:42;21.00;85.80
7117;DHT22;3600;48.568;7.870;2023-06-04T09:59:10;20.70;84.30
7117;DHT22;3600;48.568;7.870;2023-06-04T10:01:40;20.70;85.20
7117;DHT22;3600;48.568;7.870;2023-06-04T10:04:13;21.10;85.60
7117;DHT22;3600;48.568;7.870;2023-06-04T10:06:41;21.30;83.90
7117;DHT22;3600;48.568;7.870;2023-06-04T10:09:09;21.30;82.80
7117;DHT22;3600;48.568;7.870;2023-06-04T10:11:40;21.50;84.70
7117;DHT22;3600;48.568;7.870;2023-06-04T10:14:34;21.70;83.80
7117;DHT22;3600;48.568;7.870;2023-06-04T10:17:03;22.10;83.90
7117;DHT22;3600;48.568;7.870;2023-06-04T10:19:32;21.80;81.90
7117;DHT22;3600;48.568;7.870;2023-06-04T10:22:00;21.90;82.10
7117;DHT22;3600;48.568;7.870;2023-06-04T10:24:27;21.90;83.40
7117;DHT22;3600;48.568;7.870;2023-06-04T10:26:55;21.80;81.90
7117;DHT22;3600;48.568;7.870;2023-06-04T10:29:25;22.30;83.00
7117;DHT22;3600;48.568;7.870;2023-06-04T10:31:55;22.10;83.30
7117;DHT22;3600;48.568;7.870;2023-06-04T10:34:22;22.50;83.20
7117;DHT22;3600;48.568;7.870;2023-06-04T10:36:49;22.30;80.70
7117;DHT22;3600;48.568;7.870;2023-06-04T10:39:28;22.40;83.60
7117;DHT22;3600;48.568;7.870;2023-06-04T10:42:03;22.70;82.90
7117;DHT22;3600;48.568;7.870;2023-06-04T10:44:30;23.10;81.80
7117;DHT22;3600;48.568;7.870;2023-06-04T10:46:58;23.30;81.20
7117;DHT22;3600;48.568;7.870;2023-06-04T10:49:27;23.10;80.40
7117;DHT22;3600;48.568;7.870;2023-06-04T10:51:55;22.90;80.20
7117;DHT22;3600;48.568;7.870;2023-06-04T10:54:29;23.30;80.50
7117;DHT22;3600;48.568;7.870;2023-06-04T10:56:56;23.50;80.60
7117;DHT22;3600;48.568;7.870;2023-06-04T10:59:23;23.20;82.00
7117;DHT22;3600;48.568;7.870;2023-06-04T11:01:51;23.80;80.60
7117;DHT22;3600;48.568;7.870;2023-06-04T11:04:19;23.50;78.90
7117;DHT22;3600;48.568;7.870;2023-06-04T11:06:47;23.60;79.40
7117;DHT22;3600;48.568;7.870;2023-06-04T11:09:14;23.50;78.40
7117;DHT22;3600;48.568;7.870;2023-06-04T11:11:55;23.50;81.70
7117;DHT22;3600;48.568;7.870;2023-06-04T11:14:23;24.00;83.20
7117;DHT22;3600;48.568;7.870;2023-06-04T11:16:49;24.40;79.10
7117;DHT22;3600;48.568;7.870;2023-06-04T11:19:17;24.30;78.40
7117;DHT22;3600;48.568;7.870;2023-06-04T11:21:45;24.30;79.50
7117;DHT22;3600;48.568;7.870;2023-06-04T11:24:14;24.30;78.50
7117;DHT22;3600;48.568;7.870;2023-06-04T11:26:41;24.40;79.10
7117;DHT22;3600;48.568;7.870;2023-06-04T11:29:31;24.60;77.50
7117;DHT22;3600;48.568;7.870;2023-06-04T11:32:21;24.70;77.90
7117;DHT22;3600;48.568;7.870;2023-06-04T11:37:53;24.70;76.30
7117;DHT22;3600;48.568;7.870;2023-06-04T11:40:31;24.70;76.90
7117;DHT22;3600;48.568;7.870;2023-06-04T11:42:58;24.60;74.90
7117;DHT22;3600;48.568;7.870;2023-06-04T11:45:27;24.70;76.10
7117;DHT22;3600;48.568;7.870;2023-06-04T11:47:56;24.80;74.80
7117;DHT22;3600;48.568;7.870;2023-06-04T11:50:28;24.80;76.30
7117;DHT22;3600;48.568;7.870;2023-06-04T11:52:56;24.90;73.60
7117;DHT22;3600;48.568;7.870;2023-06-04T11:55:28;24.90;72.90
7117;DHT22;3600;48.568;7.870;2023-06-04T11:58:02;24.90;73.90
7117;DHT22;3600;48.568;7.870;2023-06-04T12:00:35;25.10;73.50
7117;DHT22;3600;48.568;7.870;2023-06-04T12:03:07;25.00;70.50
7117;DHT22;3600;48.568;7.870;2023-06-04T12:05:34;24.90;74.80
7117;DHT22;3600;48.568;7.870;2023-06-04T12:08:05;25.40;73.80
7117;DHT22;3600;48.568;7.870;2023-06-04T12:10:41;25.60;75.20
7117;DHT22;3600;48.568;7.870;2023-06-04T12:13:08;26.10;73.50
7117;DHT22;3600;48.568;7.870;2023-06-04T12:15:36;26.10;73.20
7117;DHT22;3600;48.568;7.870;2023-06-04T12:18:03;25.70;71.90
7117;DHT22;3600;48.568;7.870;2023-06-04T12:20:36;26.00;71.80
7117;DHT22;3600;48.568;7.870;2023-06-04T12:23:05;25.70;70.40
7117;DHT22;3600;48.568;7.870;2023-06-04T12:25:33;25.30;71.70
7117;DHT22;3600;48.568;7.870;2023-06-04T12:28:00;25.60;72.50
7117;DHT22;3600;48.568;7.870;2023-06-04T12:30:40;25.40;70.90
7117;DHT22;3600;48.568;7.870;2023-06-04T12:33:07;25.80;73.30
7117;DHT22;3600;48.568;7.870;2023-06-04T12:35:34;26.10;72.60
7117;DHT22;3600;48.568;7.870;2023-06-04T12:38:05;25.80;71.30
7117;DHT22;3600;48.568;7.870;2023-06-04T12:40:32;25.50;71.10
7117;DHT22;3600;48.568;7.870;2023-06-04T12:43:00;25.90;71.40
7117;DHT22;3600;48.568;7.870;2023-06-04T12:45:28;25.80;68.80
7117;DHT22;3600;48.568;7.870;2023-06-04T12:47:55;25.60;70.60
7117;DHT22;3600;48.568;7.870;2023-06-04T12:50:22;25.90;70.80
7117;DHT22;3600;48.568;7.870;2023-06-04T12:52:49;26.10;69.80
7117;DHT22;3600;48.568;7.870;2023-06-04T12:55:16;26.30;71.40
7117;DHT22;3600;48.568;7.870;2023-06-04T12:57:45;25.70;70.60
7117;DHT22;3600;48.568;7.870;2023-06-04T13:00:13;26.10;69.60
7117;DHT22;3600;48.568;7.870;2023-06-04T13:02:43;26.50;69.70
7117;DHT22;3600;48.568;7.870;2023-06-04T13:05:11;26.20;68.60
7117;DHT22;3600;48.568;7.870;2023-06-04T13:07:39;26.00;69.40
7117;DHT22;3600;48.568;7.870;2023-06-04T13:10:06;26.00;71.30
7117;DHT22;3600;48.568;7.870;2023-06-04T13:12:33;26.30;69.50
7117;DHT22;3600;48.568;7.870;2023-06-04T13:15:00;26.00;68.60
7117;DHT22;3600;48.568;7.870;2023-06-04T13:17:29;25.70;69.00
7117;DHT22;3600;48.568;7.870;2023-06-04T13:19:56;26.00;70.00
7117;DHT22;3600;48.568;7.870;2023-06-04T13:22:25;26.00;69.50
7117;DHT22;3600;48.568;7.870;2023-06-04T13:24:58;25.90;69.80
7117;DHT22;3600;48.568;7.870;2023-06-04T13:27:25;25.60;68.00
7117;DHT22;3600;48.568;7.870;2023-06-04T13:29:53;26.00;67.30
7117;DHT22;3600;48.568;7.870;2023-06-04T13:32:20;25.80;67.20
7117;DHT22;3600;48.568;7.870;2023-06-04T13:34:48;25.80;67.60
7117;DHT22;3600;48.568;7.870;2023-06-04T13:37:15;25.80;68.60
7117;DHT22;3600;48.568;7.870;2023-06-04T13:39:43;25.80;67.70
7117;DHT22;3600;48.568;7.870;2023-06-04T13:42:09;25.60;68.60
7117;DHT22;3600;48.568;7.870;2023-06-04T13:44:37;25.60;66.30
7117;DHT22;3600;48.568;7.870;2023-06-04T13:47:04;25.90;67.20
7117;DHT22;3600;48.568;7.870;2023-06-04T13:49:33;25.80;66.80
7117;DHT22;3600;48.568;7.870;2023-06-04T13:52:01;26.00;66.70
7117;DHT22;3600;48.568;7.870;2023-06-04T13:54:30;26.00;66.30
7117;DHT22;3600;48.568;7.870;2023-06-04T13:57:02;26.10;66.40
7117;DHT22;3600;48.568;7.870;2023-06-04T13:59:30;26.20;69.80
7117;DHT22;3600;48.568;7.870;2023-06-04T14:02:01;26.40;66.40
7117;DHT22;3600;48.568;7.870;2023-06-04T14:04:44;26.10;66.10
7117;DHT22;3600;48.568;7.870;2023-06-04T14:07:19;25.80;66.80
7117;DHT22;3600;48.568;7.870;2023-06-04T14:09:47;25.80;67.60
7117;DHT22;3600;48.568;7.870;2023-06-04T14:12:26;26.30;67.20
7117;DHT22;3600;48.568;7.870;2023-06-04T14:14:56;26.50;67.70
7117;DHT22;3600;48.568;7.870;2023-06-04T14:17:26;26.80;68.20
7117;DHT22;3600;48.568;7.870;2023-06-04T14:20:10;26.30;65.90
7117;DHT22;3600;48.568;7.870;2023-06-04T14:22:54;26.30;66.90
7117;DHT22;3600;48.568;7.870;2023-06-04T14:25:37;26.90;67.00
7117;DHT22;3600;48.568;7.870;2023-06-04T14:28:12;26.50;65.60
7117;DHT22;3600;48.568;7.870;2023-06-04T14:30:47;26.60;66.50
7117;DHT22;3600;48.568;7.870;2023-06-04T14:33:19;26.50;65.60
7117;DHT22;3600;48.568;7.870;2023-06-04T14:36:09;26.50;65.90
7117;DHT22;3600;48.568;7.870;2023-06-04T14:38:39;26.70;64.40
7117;DHT22;3600;48.568;7.870;2023-06-04T14:41:11;26.50;64.10
7117;DHT22;3600;48.568;7.870;2023-06-04T14:43:41;26.20;64.70
7117;DHT22;3600;48.568;7.870;2023-06-04T14:46:40;26.40;65.30
7117;DHT22;3600;48.568;7.870;2023-06-04T14:49:16;26.50;64.00
7117;DHT22;3600;48.568;7.870;2023-06-04T14:51:49;26.50;64.60
7117;DHT22;3600;48.568;7.870;2023-06-04T14:54:27;26.50;63.90
7117;DHT22;3600;48.568;7.870;2023-06-04T14:56:59;26.50;64.90
7117;DHT22;3600;48.568;7.870;2023-06-04T14:59:29;26.30;65.00
7117;DHT22;3600;48.568;7.870;2023-06-04T15:02:07;26.10;64.50
7117;DHT22;3600;48.568;7.870;2023-06-04T15:04:46;26.40;65.40
7117;DHT22;3600;48.568;7.870;2023-06-04T15:07:25;26.20;63.20
7117;DHT22;3600;48.568;7.870;2023-06-04T15:10:25;25.90;63.10
7117;DHT22;3600;48.568;7.870;2023-06-04T15:13:00;25.90;64.10
7117;DHT22;3600;48.568;7.870;2023-06-04T15:15:35;26.10;64.70
7117;DHT22;3600;48.568;7.870;2023-06-04T15:18:01;26.10;65.30
7117;DHT22;3600;48.568;7.870;2023-06-04T15:20:30;25.90;64.40
7117;DHT22;3600;48.568;7.870;2023-06-04T15:22:57;25.70;64.40
7117;DHT22;3600;48.568;7.870;2023-06-04T15:25:26;25.80;65.10
7117;DHT22;3600;48.568;7.870;2023-06-04T15:28:22;26.10;65.80
7117;DHT22;3600;48.568;7.870;2023-06-04T15:31:00;26.30;65.10
7117;DHT22;3600;48.568;7.870;2023-06-04T15:33:27;26.20;65.30
7117;DHT22;3600;48.568;7.870;2023-06-04T15:36:12;26.30;66.00
7117;DHT22;3600;48.568;7.870;2023-06-04T15:38:48;26.20;65.00
7117;DHT22;3600;48.568;7.870;2023-06-04T15:41:30;26.20;64.70
7117;DHT22;3600;48.568;7.870;2023-06-04T15:43:56;25.80;65.20
7117;DHT22;3600;48.568;7.870;2023-06-04T15:46:35;26.00;63.60
7117;DHT22;3600;48.568;7.870;2023-06-04T15:49:05;25.60;64.70
7117;DHT22;3600;48.568;7.870;2023-06-04T15:51:46;25.70;65.20
7117;DHT22;3600;48.568;7.870;2023-06-04T15:54:23;25.70;64.80
7117;DHT22;3600;48.568;7.870;2023-06-04T15:57:09;25.50;65.00
7117;DHT22;3600;48.568;7.870;2023-06-04T15:59:47;25.70;64.80
7117;DHT22;3600;48.568;7.870;2023-06-04T16:02:29;25.80;65.90
7117;DHT22;3600;48.568;7.870;2023-06-04T16:04:59;25.80;67.30
7117;DHT22;3600;48.568;7.870;2023-06-04T16:07:46;25.50;65.80
7117;DHT22;3600;48.568;7.870;2023-06-04T16:10:13;25.60;65.10
7117;DHT22;3600;48.568;7.870;2023-06-04T16:12:47;25.50;64.00
7117;DHT22;3600;48.568;7.870;2023-06-04T16:15:35;25.50;65.60
7117;DHT22;3600;48.568;7.870;2023-06-04T16:18:09;25.60;65.70
7117;DHT22;3600;48.568;7.870;2023-06-04T16:20:42;25.50;65.40
7117;DHT22;3600;48.568;7.870;2023-06-04T16:23:15;25.30;65.20
7117;DHT22;3600;48.568;7.870;2023-06-04T16:25:48;25.10;65.80
7117;DHT22;3600;48.568;7.870;2023-06-04T16:28:27;24.90;65.00